sensor_id;sensor_type;location;lat;lon;timestamp;pressure;altitude;pressure_sealevel;temperature;humidity
49979;BME280;35869;50.990;6.962;2023-06-14T00:00:34;100991.88;;;20.18;47.46
49979;BME280;35869;50.990;6.962;2023-06-14T00:05:34;100987.19;;;20.10;47.32
49979;BME280;35869;50.990;6.962;2023-06-14T00:10:35;100998.34;;;20.03;47.82
49979;BME280;35869;50.990;6.962;2023-06-14T00:15:35;100990.44;;;19.91;47.83
49979;BME280;35869;50.990;6.962;2023-06-14T00:20:36;101002.69;;;19.81;48.42
49979;BME280;35869;50.990;6.962;2023-06-14T00:25:36;100996.47;;;19.71;49.44
49979;BME280;35869;50.990;6.962;2023-06-14T00:30:36;101012.88;;;19.63;49.04
49979;BME280;35869;50.990;6.962;2023-06-14T00:35:37;101005.53;;;19.56;48.91
49979;BME280;35869;50.990;6.962;2023-06-14T00:40:37;101024.59;;;19.48;49.54
49979;BME280;35869;50.990;6.962;2023-06-14T00:45:37;101028.53;;;19.42;49.51
49979;BME280;35869;50.990;6.962;2023-06-14T00:50:37;101024.78;;;19.34;49.91
49979;BME280;35869;50.990;6.962;2023-06-14T00:55:38;101037.38;;;19.30;49.64
49979;BME280;35869;50.990;6.962;2023-06-14T01:00:38;101045.00;;;19.22;49.41
49979;BME280;35869;50.990;6.962;2023-06-14T01:05:38;101042.50;;;19.21;49.40
49979;BME280;35869;50.990;6.962;2023-06-14T01:10:53;101039.44;;;19.03;50.74
49979;BME280;35869;50.990;6.962;2023-06-14T01:15:56;101046.72;;;18.99;49.98
49979;BME280;35869;50.990;6.962;2023-06-14T01:20:57;101045.03;;;18.98;50.75
49979;BME280;35869;50.990;6.962;2023-06-14T01:25:57;101037.94;;;18.87;50.87
49979;BME280;35869;50.990;6.962;2023-06-14T01:31:00;101040.53;;;18.76;50.76
49979;BME280;35869;50.990;6.962;2023-06-14T01:36:01;101046.34;;;18.69;50.80
49979;BME280;35869;50.990;6.962;2023-06-14T01:41:03;101040.25;;;18.68;50.74
49979;BME280;35869;50.990;6.962;2023-06-14T01:46:04;101041.50;;;18.62;51.45
49979;BME280;35869;50.990;6.962;2023-06-14T01:51:05;101045.75;;;18.52;51.60
49979;BME280;35869;50.990;6.962;2023-06-14T01:56:06;101045.97;;;18.49;51.95
49979;BME280;35869;50.990;6.962;2023-06-14T02:01:06;101049.19;;;18.42;52.57
49979;BME280;35869;50.990;6.962;2023-06-14T02:06:07;101049.09;;;18.30;52.06
49979;BME280;35869;50.990;6.962;2023-06-14T02:11:08;101045.00;;;18.26;52.29
49979;BME280;35869;50.990;6.962;2023-06-14T02:16:08;101047.13;;;18.21;51.92
49979;BME280;35869;50.990;6.962;2023-06-14T02:21:08;101056.72;;;18.09;52.55
49979;BME280;35869;50.990;6.962;2023-06-14T02:26:08;101056.00;;;18.07;52.44
49979;BME280;35869;50.990;6.962;2023-06-14T02:31:09;101058.94;;;18.03;52.38
49979;BME280;35869;50.990;6.962;2023-06-14T02:36:09;101062.41;;;18.03;52.74
49979;BME280;35869;50.990;6.962;2023-06-14T02:41:09;101063.91;;;17.95;52.64
49979;BME280;35869;50.990;6.962;2023-06-14T02:46:09;101070.09;;;17.94;52.71
49979;BME280;35869;50.990;6.962;2023-06-14T02:51:09;101070.75;;;17.84;53.78
49979;BME280;35869;50.990;6.962;2023-06-14T02:56:10;101068.66;;;17.77;53.46
49979;BME280;35869;50.990;6.962;2023-06-14T03:01:10;101074.09;;;17.74;54.24
49979;BME280;35869;50.990;6.962;2023-06-14T03:06:11;101078.63;;;17.72;53.59
49979;BME280;35869;50.990;6.962;2023-06-14T03:11:11;101081.72;;;17.64;54.08
49979;BME280;35869;50.990;6.962;2023-06-14T03:16:11;101080.91;;;17.64;54.26
49979;BME280;35869;50.990;6.962;2023-06-14T03:21:11;101086.56;;;17.57;54.01
49979;BME280;35869;50.990;6.962;2023-06-14T03:26:12;101092.13;;;17.53;54.36
49979;BME280;35869;50.990;6.962;2023-06-14T03:31:13;101101.50;;;17.44;55.21
49979;BME280;35869;50.990;6.962;2023-06-14T03:36:13;101100.13;;;17.39;55.50
49979;BME280;35869;50.990;6.962;2023-06-14T03:41:13;101099.69;;;17.45;55.52
49979;BME280;35869;50.990;6.962;2023-06-14T03:46:13;101111.03;;;17.32;55.52
49979;BME280;35869;50.990;6.962;2023-06-14T03:51:13;101109.91;;;17.37;55.62
49979;BME280;35869;50.990;6.962;2023-06-14T03:56:14;101111.53;;;17.25;55.99
49979;BME280;35869;50.990;6.962;2023-06-14T04:01:14;101119.44;;;17.25;56.16
49979;BME280;35869;50.990;6.962;2023-06-14T04:06:14;101122.47;;;17.19;56.88
49979;BME280;35869;50.990;6.962;2023-06-14T04:11:15;101117.94;;;17.21;56.82
49979;BME280;35869;50.990;6.962;2023-06-14T04:16:15;101136.50;;;17.18;57.04
49979;BME280;35869;50.990;6.962;2023-06-14T04:21:15;101137.66;;;17.14;57.70
49979;BME280;35869;50.990;6.962;2023-06-14T04:26:15;101145.34;;;17.17;57.18
49979;BME280;35869;50.990;6.962;2023-06-14T04:31:16;101148.19;;;17.14;57.33
49979;BME280;35869;50.990;6.962;2023-06-14T04:36:22;101153.03;;;17.20;56.67
49979;BME280;35869;50.990;6.962;2023-06-14T04:41:22;101163.16;;;17.12;56.58
49979;BME280;35869;50.990;6.962;2023-06-14T04:46:22;101161.16;;;17.02;56.48
49979;BME280;35869;50.990;6.962;2023-06-14T04:51:23;101165.47;;;17.03;55.82
49979;BME280;35869;50.990;6.962;2023-06-14T04:56:24;101173.34;;;17.03;55.75
49979;BME280;35869;50.990;6.962;2023-06-14T05:01:24;101184.06;;;17.00;56.18
49979;BME280;35869;50.990;6.962;2023-06-14T05:06:25;101186.97;;;16.96;55.77
49979;BME280;35869;50.990;6.962;2023-06-14T05:11:25;101190.16;;;16.87;55.23
49979;BME280;35869;50.990;6.962;2023-06-14T05:16:25;101193.34;;;16.92;54.24
49979;BME280;35869;50.990;6.962;2023-06-14T05:21:25;101197.31;;;16.85;54.05
49979;BME280;35869;50.990;6.962;2023-06-14T05:26:26;101197.59;;;16.80;53.24
49979;BME280;35869;50.990;6.962;2023-06-14T05:31:26;101186.97;;;16.96;53.78
49979;BME280;35869;50.990;6.962;2023-06-14T05:36:27;101192.91;;;16.85;52.43
49979;BME280;35869;50.990;6.962;2023-06-14T05:41:27;101198.03;;;16.87;52.44
49979;BME280;35869;50.990;6.962;2023-06-14T05:46:27;101201.50;;;16.87;51.95
49979;BME280;35869;50.990;6.962;2023-06-14T05:51:27;101207.13;;;16.95;51.80
49979;BME280;35869;50.990;6.962;2023-06-14T05:56:27;101216.41;;;17.01;52.35
49979;BME280;35869;50.990;6.962;2023-06-14T06:01:28;101218.19;;;17.00;51.81
49979;BME280;35869;50.990;6.962;2023-06-14T06:06:28;101220.44;;;17.07;51.98
49979;BME280;35869;50.990;6.962;2023-06-14T06:11:29;101227.38;;;17.08;51.74
49979;BME280;35869;50.990;6.962;2023-06-14T06:16:29;101221.28;;;17.34;51.88
49979;BME280;35869;50.990;6.962;2023-06-14T06:21:32;101229.09;;;17.21;51.60
49979;BME280;35869;50.990;6.962;2023-06-14T06:26:32;101224.84;;;17.33;52.23
49979;BME280;35869;50.990;6.962;2023-06-14T06:31:32;101227.22;;;17.50;51.46
49979;BME280;35869;50.990;6.962;2023-06-14T06:36:33;101232.88;;;17.71;50.92
49979;BME280;35869;50.990;6.962;2023-06-14T06:41:34;101233.06;;;17.68;51.91
49979;BME280;35869;50.990;6.962;2023-06-14T06:46:34;101235.88;;;17.92;51.47
49979;BME280;35869;50.990;6.962;2023-06-14T06:51:42;101238.88;;;18.00;50.89
49979;BME280;35869;50.990;6.962;2023-06-14T06:56:43;101244.00;;;18.02;52.24
49979;BME280;35869;50.990;6.962;2023-06-14T07:01:43;101249.81;;;18.20;51.29
49979;BME280;35869;50.990;6.962;2023-06-14T07:06:43;101247.41;;;18.29;51.33
49979;BME280;35869;50.990;6.962;2023-06-14T07:11:44;101251.31;;;18.49;51.34
49979;BME280;35869;50.990;6.962;2023-06-14T07:16:44;101245.81;;;18.65;50.74
49979;BME280;35869;50.990;6.962;2023-06-14T07:21:44;101250.25;;;18.77;50.30
49979;BME280;35869;50.990;6.962;2023-06-14T07:26:44;101250.88;;;18.81;50.65
49979;BME280;35869;50.990;6.962;2023-06-14T07:31:45;101248.00;;;18.97;50.14
49979;BME280;35869;50.990;6.962;2023-06-14T07:36:45;101251.00;;;19.16;48.56
49979;BME280;35869;50.990;6.962;2023-06-14T07:41:46;101252.50;;;19.07;49.03
49979;BME280;35869;50.990;6.962;2023-06-14T07:46:46;101250.75;;;19.32;48.10
49979;BME280;35869;50.990;6.962;2023-06-14T07:51:46;101240.53;;;19.51;47.90
49979;BME280;35869;50.990;6.962;2023-06-14T07:56:46;101239.25;;;19.57;48.67
49979;BME280;35869;50.990;6.962;2023-06-14T08:01:47;101241.66;;;19.84;43.25
49979;BME280;35869;50.990;6.962;2023-06-14T08:06:47;101246.94;;;19.84;45.06
49979;BME280;35869;50.990;6.962;2023-06-14T08:11:47;101236.00;;;20.12;42.02
49979;BME280;35869;50.990;6.962;2023-06-14T08:16:47;101240.28;;;20.02;45.08
49979;BME280;35869;50.990;6.962;2023-06-14T08:21:48;101241.38;;;20.22;44.87
49979;BME280;35869;50.990;6.962;2023-06-14T08:26:48;101235.53;;;20.18;45.76
49979;BME280;35869;50.990;6.962;2023-06-14T08:31:57;101245.38;;;20.39;41.32
49979;BME280;35869;50.990;6.962;2023-06-14T08:36:58;101235.13;;;20.47;43.38
49979;BME280;35869;50.990;6.962;2023-06-14T08:42:15;101232.94;;;20.63;44.06
49979;BME280;35869;50.990;6.962;2023-06-14T08:47:18;101237.72;;;20.81;42.28
49979;BME280;35869;50.990;6.962;2023-06-14T08:52:20;101229.56;;;20.95;43.76
49979;BME280;35869;50.990;6.962;2023-06-14T08:57:55;101218.69;;;21.20;42.71
49979;BME280;35869;50.990;6.962;2023-06-14T09:02:56;101218.31;;;21.36;41.10
49979;BME280;35869;50.990;6.962;2023-06-14T09:07:56;101232.06;;;21.51;43.49
49979;BME280;35869;50.990;6.962;2023-06-14T09:13:01;101217.78;;;21.74;43.75
49979;BME280;35869;50.990;6.962;2023-06-14T09:18:02;101217.25;;;22.13;41.75
49979;BME280;35869;50.990;6.962;2023-06-14T09:23:06;101224.88;;;22.67;37.98
49979;BME280;35869;50.990;6.962;2023-06-14T09:28:07;101221.78;;;22.62;42.35
49979;BME280;35869;50.990;6.962;2023-06-14T09:33:08;101225.75;;;23.18;39.55
49979;BME280;35869;50.990;6.962;2023-06-14T09:38:08;101228.00;;;23.61;39.78
49979;BME280;35869;50.990;6.962;2023-06-14T09:43:08;101229.72;;;23.81;41.24
49979;BME280;35869;50.990;6.962;2023-06-14T09:48:08;101225.03;;;24.22;40.53
49979;BME280;35869;50.990;6.962;2023-06-14T09:53:11;101230.16;;;24.80;39.91
49979;BME280;35869;50.990;6.962;2023-06-14T09:58:12;101219.47;;;25.17;38.22
49979;BME280;35869;50.990;6.962;2023-06-14T10:03:18;101226.84;;;25.41;40.85
49979;BME280;35869;50.990;6.962;2023-06-14T10:08:25;101219.97;;;25.92;38.61
49979;BME280;35869;50.990;6.962;2023-06-14T10:13:28;101208.06;;;26.04;40.33
49979;BME280;35869;50.990;6.962;2023-06-14T10:18:59;101208.38;;;26.53;37.89
49979;BME280;35869;50.990;6.962;2023-06-14T10:24:06;101211.00;;;26.88;40.62
49979;BME280;35869;50.990;6.962;2023-06-14T10:29:08;101205.84;;;27.02;40.16
49979;BME280;35869;50.990;6.962;2023-06-14T10:34:08;101202.28;;;27.28;39.04
49979;BME280;35869;50.990;6.962;2023-06-14T10:39:17;101203.94;;;27.61;38.65
49979;BME280;35869;50.990;6.962;2023-06-14T10:49:41;101192.94;;;27.97;38.30
49979;BME280;35869;50.990;6.962;2023-06-14T10:55:08;101193.56;;;28.15;38.32
49979;BME280;35869;50.990;6.962;2023-06-14T11:00:19;101201.88;;;28.37;38.42
49979;BME280;35869;50.990;6.962;2023-06-14T11:05:24;101207.47;;;28.58;38.26
49979;BME280;35869;50.990;6.962;2023-06-14T11:10:38;101204.81;;;28.58;37.45
49979;BME280;35869;50.990;6.962;2023-06-14T11:15:44;101197.34;;;28.77;35.43
49979;BME280;35869;50.990;6.962;2023-06-14T11:20:46;101189.78;;;28.97;36.75
49979;BME280;35869;50.990;6.962;2023-06-14T11:25:50;101186.91;;;29.21;36.65
49979;BME280;35869;50.990;6.962;2023-06-14T11:31:01;101195.97;;;29.20;33.61
49979;BME280;35869;50.990;6.962;2023-06-14T11:36:02;101191.97;;;29.39;34.91
49979;BME280;35869;50.990;6.962;2023-06-14T11:41:03;101184.78;;;29.39;36.65
49979;BME280;35869;50.990;6.962;2023-06-14T11:46:25;101183.13;;;29.76;35.71
49979;BME280;35869;50.990;6.962;2023-06-14T11:51:26;101179.47;;;29.54;35.88
49979;BME280;35869;50.990;6.962;2023-06-14T11:56:30;101174.66;;;29.50;36.03
49979;BME280;35869;50.990;6.962;2023-06-14T12:01:31;101171.63;;;29.90;33.94
49979;BME280;35869;50.990;6.962;2023-06-14T12:06:31;101174.66;;;29.87;34.16
49979;BME280;35869;50.990;6.962;2023-06-14T12:11:41;101176.75;;;30.15;34.92
49979;BME280;35869;50.990;6.962;2023-06-14T12:16:41;101180.28;;;30.07;35.66
49979;BME280;35869;50.990;6.962;2023-06-14T12:21:42;101175.09;;;29.76;36.33
49979;BME280;35869;50.990;6.962;2023-06-14T12:26:45;101167.63;;;30.01;34.72
49979;BME280;35869;50.990;6.962;2023-06-14T12:31:46;101168.22;;;30.11;35.55
49979;BME280;35869;50.990;6.962;2023-06-14T12:36:46;101174.41;;;30.41;31.40
49979;BME280;35869;50.990;6.962;2023-06-14T12:41:46;101176.53;;;30.16;36.69
49979;BME280;35869;50.990;6.962;2023-06-14T12:46:47;101177.19;;;30.33;31.38
49979;BME280;35869;50.990;6.962;2023-06-14T12:51:47;101168.47;;;30.31;33.23
49979;BME280;35869;50.990;6.962;2023-06-14T12:56:47;101166.63;;;30.02;32.65
49979;BME280;35869;50.990;6.962;2023-06-14T13:01:48;101176.78;;;29.92;35.37
49979;BME280;35869;50.990;6.962;2023-06-14T13:06:48;101180.97;;;30.09;34.86
49979;BME280;35869;50.990;6.962;2023-06-14T13:11:48;101190.19;;;30.07;33.49
49979;BME280;35869;50.990;6.962;2023-06-14T13:16:48;101187.16;;;30.24;32.39
49979;BME280;35869;50.990;6.962;2023-06-14T13:21:49;101185.94;;;29.60;35.33
49979;BME280;35869;50.990;6.962;2023-06-14T13:26:49;101185.75;;;29.99;33.11
49979;BME280;35869;50.990;6.962;2023-06-14T13:31:55;101187.16;;;30.10;32.48
49979;BME280;35869;50.990;6.962;2023-06-14T13:36:55;101192.28;;;29.67;32.90
49979;BME280;35869;50.990;6.962;2023-06-14T13:41:56;101204.84;;;29.43;35.99
49979;BME280;35869;50.990;6.962;2023-06-14T13:46:56;101199.00;;;29.63;33.77
49979;BME280;35869;50.990;6.962;2023-06-14T13:51:56;101195.72;;;29.53;32.28
49979;BME280;35869;50.990;6.962;2023-06-14T13:56:56;101199.84;;;29.63;31.89
49979;BME280;35869;50.990;6.962;2023-06-14T14:01:57;101196.56;;;29.53;34.67
49979;BME280;35869;50.990;6.962;2023-06-14T14:06:57;101193.53;;;29.56;34.01
49979;BME280;35869;50.990;6.962;2023-06-14T14:11:58;101202.56;;;29.32;34.17
49979;BME280;35869;50.990;6.962;2023-06-14T14:16:58;101195.47;;;29.16;34.99
49979;BME280;35869;50.990;6.962;2023-06-14T14:21:59;101193.00;;;29.38;34.65
49979;BME280;35869;50.990;6.962;2023-06-14T14:26:59;101199.22;;;29.07;35.73
49979;BME280;35869;50.990;6.962;2023-06-14T14:32:01;101200.47;;;28.97;33.57
49979;BME280;35869;50.990;6.962;2023-06-14T14:37:03;101200.72;;;28.71;34.83
49979;BME280;35869;50.990;6.962;2023-06-14T14:42:04;101204.34;;;28.86;33.46
49979;BME280;35869;50.990;6.962;2023-06-14T14:47:05;101200.34;;;28.82;32.39
49979;BME280;35869;50.990;6.962;2023-06-14T14:52:05;101204.03;;;28.81;32.81
49979;BME280;35869;50.990;6.962;2023-06-14T14:57:06;101198.63;;;28.89;34.80
49979;BME280;35869;50.990;6.962;2023-06-14T15:02:07;101201.38;;;28.73;33.56
49979;BME280;35869;50.990;6.962;2023-06-14T15:07:14;101212.50;;;28.61;35.51
49979;BME280;35869;50.990;6.962;2023-06-14T15:12:15;101212.19;;;28.48;36.51
49979;BME280;35869;50.990;6.962;2023-06-14T15:17:15;101205.19;;;28.47;32.53
49979;BME280;35869;50.990;6.962;2023-06-14T15:22:16;101211.59;;;28.38;33.97
49979;BME280;35869;50.990;6.962;2023-06-14T15:27:16;101207.75;;;28.08;35.25
49979;BME280;35869;50.990;6.962;2023-06-14T15:32:17;101205.25;;;28.14;35.76
49979;BME280;35869;50.990;6.962;2023-06-14T15:37:17;101214.31;;;27.97;32.71
49979;BME280;35869;50.990;6.962;2023-06-14T15:42:17;101221.81;;;28.02;33.75
49979;BME280;35869;50.990;6.962;2023-06-14T15:47:17;101222.81;;;28.01;34.37
49979;BME280;35869;50.990;6.962;2023-06-14T15:52:18;101217.00;;;27.97;33.52
49979;BME280;35869;50.990;6.962;2023-06-14T15:57:18;101222.00;;;27.92;35.58
49979;BME280;35869;50.990;6.962;2023-06-14T16:02:18;101211.66;;;27.81;34.98
49979;BME280;35869;50.990;6.962;2023-06-14T16:07:18;101212.81;;;27.78;35.38
49979;BME280;35869;50.990;6.962;2023-06-14T16:12:19;101208.81;;;27.82;35.57
49979;BME280;35869;50.990;6.962;2023-06-14T16:17:19;101210.16;;;27.70;36.18
49979;BME280;35869;50.990;6.962;2023-06-14T16:22:19;101209.63;;;27.58;34.91
49979;BME280;35869;50.990;6.962;2023-06-14T16:27:20;101205.63;;;27.62;35.56
49979;BME280;35869;50.990;6.962;2023-06-14T16:32:20;101220.97;;;27.52;35.30
49979;BME280;35869;50.990;6.962;2023-06-14T16:37:20;101209.63;;;27.42;35.75
49979;BME280;35869;50.990;6.962;2023-06-14T16:42:21;101223.28;;;27.23;37.12
49979;BME280;35869;50.990;6.962;2023-06-14T16:47:22;101223.91;;;27.08;37.33
49979;BME280;35869;50.990;6.962;2023-06-14T16:52:22;101222.16;;;26.91;37.81
49979;BME280;35869;50.990;6.962;2023-06-14T16:57:22;101225.78;;;26.74;37.34
49979;BME280;35869;50.990;6.962;2023-06-14T17:02:22;101230.06;;;26.67;38.00
49979;BME280;35869;50.990;6.962;2023-06-14T17:07:22;101226.66;;;26.48;37.34
49979;BME280;35869;50.990;6.962;2023-06-14T17:12:22;101229.84;;;26.26;38.50
49979;BME280;35869;50.990;6.962;2023-06-14T17:17:23;101228.56;;;26.38;35.53
49979;BME280;35869;50.990;6.962;2023-06-14T17:22:23;101241.38;;;26.09;37.92
49979;BME280;35869;50.990;6.962;2023-06-14T17:27:23;101240.97;;;25.95;38.29
49979;BME280;35869;50.990;6.962;2023-06-14T17:32:23;101242.75;;;25.87;38.76
49979;BME280;35869;50.990;6.962;2023-06-14T17:37:23;101245.03;;;25.82;37.48
49979;BME280;35869;50.990;6.962;2023-06-14T17:42:24;101252.38;;;25.70;36.39
49979;BME280;35869;50.990;6.962;2023-06-14T17:47:24;101254.75;;;25.55;38.60
49979;BME280;35869;50.990;6.962;2023-06-14T17:52:25;101256.66;;;25.45;39.42
49979;BME280;35869;50.990;6.962;2023-06-14T17:57:25;101260.28;;;25.26;39.75
49979;BME280;35869;50.990;6.962;2023-06-14T18:02:25;101263.69;;;25.18;40.09
49979;BME280;35869;50.990;6.962;2023-06-14T18:07:25;101263.06;;;25.07;39.66
49979;BME280;35869;50.990;6.962;2023-06-14T18:12:26;101268.59;;;24.86;39.93
49979;BME280;35869;50.990;6.962;2023-06-14T18:17:26;101278.28;;;24.77;39.00
49979;BME280;35869;50.990;6.962;2023-06-14T18:22:26;101284.38;;;24.60;40.46
49979;BME280;35869;50.990;6.962;2023-06-14T18:27:26;101285.22;;;24.51;38.66
49979;BME280;35869;50.990;6.962;2023-06-14T18:32:26;101294.91;;;24.32;40.66
49979;BME280;35869;50.990;6.962;2023-06-14T18:37:27;101300.66;;;24.28;39.78
49979;BME280;35869;50.990;6.962;2023-06-14T18:42:27;101297.59;;;24.13;40.13
49979;BME280;35869;50.990;6.962;2023-06-14T18:47:27;101302.38;;;24.00;41.02
49979;BME280;35869;50.990;6.962;2023-06-14T18:52:27;101296.22;;;23.89;40.83
49979;BME280;35869;50.990;6.962;2023-06-14T18:57:28;101312.97;;;23.80;40.52
49979;BME280;35869;50.990;6.962;2023-06-14T19:02:28;101308.22;;;23.64;41.28
49979;BME280;35869;50.990;6.962;2023-06-14T19:07:28;101310.16;;;23.53;41.12
49979;BME280;35869;50.990;6.962;2023-06-14T19:12:28;101312.91;;;23.41;41.84
49979;BME280;35869;50.990;6.962;2023-06-14T19:17:28;101316.66;;;23.29;42.17
49979;BME280;35869;50.990;6.962;2023-06-14T19:22:29;101318.44;;;23.19;42.13
49979;BME280;35869;50.990;6.962;2023-06-14T19:27:29;101318.97;;;23.13;42.05
49979;BME280;35869;50.990;6.962;2023-06-14T19:32:29;101330.91;;;22.98;43.09
49979;BME280;35869;50.990;6.962;2023-06-14T19:37:30;101328.94;;;22.90;43.12
49979;BME280;35869;50.990;6.962;2023-06-14T19:42:31;101330.22;;;22.75;42.82
49979;BME280;35869;50.990;6.962;2023-06-14T19:47:33;101335.47;;;22.65;42.97
49979;BME280;35869;50.990;6.962;2023-06-14T19:52:34;101351.59;;;22.52;43.54
49979;BME280;35869;50.990;6.962;2023-06-14T19:57:34;101352.63;;;22.40;44.38
49979;BME280;35869;50.990;6.962;2023-06-14T20:02:35;101356.28;;;22.28;43.93
49979;BME280;35869;50.990;6.962;2023-06-14T20:07:35;101355.25;;;22.19;44.38
49979;BME280;35869;50.990;6.962;2023-06-14T20:12:37;101371.97;;;22.08;45.24
49979;BME280;35869;50.990;6.962;2023-06-14T20:17:37;101372.84;;;21.98;44.99
49979;BME280;35869;50.990;6.962;2023-06-14T20:22:37;101385.91;;;21.90;45.18
49979;BME280;35869;50.990;6.962;2023-06-14T20:27:38;101398.19;;;21.79;45.44
49979;BME280;35869;50.990;6.962;2023-06-14T20:32:39;101393.03;;;21.67;46.70
49979;BME280;35869;50.990;6.962;2023-06-14T20:37:39;101397.28;;;21.58;45.59
49979;BME280;35869;50.990;6.962;2023-06-14T20:42:41;101403.41;;;21.47;45.54
49979;BME280;35869;50.990;6.962;2023-06-14T20:47:41;101404.00;;;21.40;45.45
49979;BME280;35869;50.990;6.962;2023-06-14T20:52:42;101403.06;;;21.29;46.46
49979;BME280;35869;50.990;6.962;2023-06-14T20:57:42;101406.38;;;21.20;46.42
49979;BME280;35869;50.990;6.962;2023-06-14T21:02:42;101414.19;;;21.11;46.84
49979;BME280;35869;50.990;6.962;2023-06-14T21:07:43;101422.00;;;21.01;47.03
49979;BME280;35869;50.990;6.962;2023-06-14T21:12:43;101421.97;;;20.90;47.80
49979;BME280;35869;50.990;6.962;2023-06-14T21:17:43;101424.13;;;20.85;47.46
49979;BME280;35869;50.990;6.962;2023-06-14T21:22:43;101425.91;;;20.73;47.43
49979;BME280;35869;50.990;6.962;2023-06-14T21:27:44;101429.25;;;20.64;47.63
49979;BME280;35869;50.990;6.962;2023-06-14T21:32:44;101424.53;;;20.56;48.12
49979;BME280;35869;50.990;6.962;2023-06-14T21:37:44;101431.34;;;20.47;47.91
49979;BME280;35869;50.990;6.962;2023-06-14T21:42:44;101430.94;;;20.41;48.46
49979;BME280;35869;50.990;6.962;2023-06-14T21:47:44;101430.91;;;20.30;48.57
49979;BME280;35869;50.990;6.962;2023-06-14T21:52:45;101432.06;;;20.26;49.07
49979;BME280;35869;50.990;6.962;2023-06-14T21:57:45;101440.56;;;20.18;48.81
49979;BME280;35869;50.990;6.962;2023-06-14T22:02:45;101439.53;;;20.08;49.21
49979;BME280;35869;50.990;6.962;2023-06-14T22:07:45;101439.16;;;20.01;49.19
49979;BME280;35869;50.990;6.962;2023-06-14T22:12:46;101440.56;;;19.94;49.89
49979;BME280;35869;50.990;6.962;2023-06-14T22:17:46;101446.59;;;19.83;49.62
49979;BME280;35869;50.990;6.962;2023-06-14T22:22:46;101447.88;;;19.78;49.78
49979;BME280;35869;50.990;6.962;2023-06-14T22:27:46;101453.34;;;19.75;49.83
49979;BME280;35869;50.990;6.962;2023-06-14T22:32:47;101453.78;;;19.68;49.47
49979;BME280;35869;50.990;6.962;2023-06-14T22:37:49;101452.66;;;19.60;49.37
49979;BME280;35869;50.990;6.962;2023-06-14T22:42:49;101451.25;;;19.54;50.19
49979;BME280;35869;50.990;6.962;2023-06-14T22:47:49;101450.00;;;19.47;50.16
49979;BME280;35869;50.990;6.962;2023-06-14T22:52:50;101452.13;;;19.42;51.04
49979;BME280;35869;50.990;6.962;2023-06-14T22:57:50;101453.28;;;19.38;50.33
49979;BME280;35869;50.990;6.962;2023-06-14T23:02:50;101450.22;;;19.31;50.44
49979;BME280;35869;50.990;6.962;2023-06-14T23:07:51;101446.22;;;19.26;51.02
49979;BME280;35869;50.990;6.962;2023-06-14T23:12:51;101444.75;;;19.22;51.12
49979;BME280;35869;50.990;6.962;2023-06-14T23:17:51;101440.66;;;19.17;50.96
49979;BME280;35869;50.990;6.962;2023-06-14T23:22:51;101440.00;;;19.14;51.08
49979;BME280;35869;50.990;6.962;2023-06-14T23:27:51;101440.84;;;19.02;51.80
49979;BME280;35869;50.990;6.962;2023-06-14T23:32:52;101445.47;;;18.98;51.53
49979;BME280;35869;50.990;6.962;2023-06-14T23:37:52;101453.59;;;18.95;51.43
49979;BME280;35869;50.990;6.962;2023-06-14T23:42:52;101445.47;;;18.85;51.81
49979;BME280;35869;50.990;6.962;2023-06-14T23:47:52;101439.47;;;18.83;51.85
49979;BME280;35869;50.990;6.962;2023-06-14T23:52:52;101447.38;;;18.83;51.94
49979;BME280;35869;50.990;6.962;2023-06-14T23:57:53;101447.13;;;18.74;53.47
